createdAt,value
2022-11-29T00:03:02.315Z,10.10
2022-11-29T00:06:13.580Z,7.53
2022-11-29T00:09:21.757Z,8.33
2022-11-29T00:12:31.575Z,8.30
2022-11-29T00:15:41.053Z,7.90
2022-11-29T00:18:50.689Z,9.03
2022-11-29T00:21:59.109Z,8.43
2022-11-29T00:25:08.989Z,7.30
2022-11-29T00:28:18.750Z,6.10
2022-11-29T00:31:31.144Z,7.13
2022-11-29T00:34:39.543Z,8.60
2022-11-29T00:37:47.750Z,7.37
2022-11-29T00:40:55.917Z,6.33
2022-11-29T00:44:05.955Z,8.70
2022-11-29T00:47:14.259Z,4.70
2022-11-29T00:50:22.653Z,11.43
2022-11-29T00:53:30.907Z,6.17
2022-11-29T00:56:39.266Z,6.10
2022-11-29T00:59:49.392Z,5.80
2022-11-29T01:02:57.742Z,6.80
2022-11-29T01:06:09.131Z,5.50
2022-11-29T01:09:17.325Z,5.50
2022-11-29T01:12:25.749Z,7.17
2022-11-29T01:15:35.669Z,5.63
2022-11-29T01:18:44.646Z,4.57
2022-11-29T01:21:53.529Z,5.20
2022-11-29T01:25:01.803Z,5.63
2022-11-29T01:28:10.429Z,5.50
2022-11-29T01:31:24.184Z,4.97
2022-11-29T01:34:32.512Z,6.77
2022-11-29T01:37:41.052Z,6.17
2022-11-29T01:41:00.990Z,5.80
2022-11-29T01:45:02.517Z,6.63
2022-11-29T01:48:15.413Z,7.07
2022-11-29T01:51:24.268Z,5.60
2022-11-29T01:54:37.994Z,5.93
2022-11-29T01:57:46.593Z,5.37
2022-11-29T02:00:54.942Z,5.20
2022-11-29T02:04:05.429Z,7.03
2022-11-29T02:07:14.237Z,5.53
2022-11-29T02:10:41.603Z,4.63
2022-11-29T02:14:02.477Z,4.17
2022-11-29T02:17:26.148Z,3.80
2022-11-29T02:21:16.442Z,5.30
2022-11-29T02:25:04.299Z,4.60
2022-11-29T02:28:58.476Z,6.33
2022-11-29T02:33:03.905Z,4.10
2022-11-29T02:36:40.621Z,5.90
2022-11-29T02:40:26.028Z,5.00
2022-11-29T02:44:10.210Z,4.27
2022-11-29T02:47:37.098Z,4.20
2022-11-29T02:50:58.919Z,3.97
2022-11-29T02:54:20.464Z,4.47
2022-11-29T02:57:42.862Z,4.00
2022-11-29T03:01:03.794Z,3.70
2022-11-29T03:04:23.057Z,5.47
2022-11-29T03:07:45.567Z,4.67
2022-11-29T03:11:05.942Z,3.90
2022-11-29T03:14:25.672Z,3.97
2022-11-29T03:17:51.075Z,3.57
2022-11-29T03:21:10.960Z,3.90
2022-11-29T03:24:31.827Z,3.60
2022-11-29T03:27:51.445Z,3.30
2022-11-29T03:31:09.696Z,4.20
2022-11-29T03:34:31.624Z,4.37
2022-11-29T03:37:51.411Z,5.60
2022-11-29T03:41:18.742Z,4.10
2022-11-29T03:44:35.977Z,3.90
2022-11-29T03:47:57.481Z,3.33
2022-11-29T03:51:14.802Z,4.60
2022-11-29T03:54:30.692Z,5.97
2022-11-29T03:57:56.287Z,5.47
2022-11-29T04:01:56.057Z,6.27
2022-11-29T04:05:47.661Z,8.40
2022-11-29T04:09:35.422Z,7.10
2022-11-29T04:13:24.946Z,8.03
2022-11-29T04:17:43.485Z,7.17
2022-11-29T04:21:27.727Z,8.43
2022-11-29T04:25:36.382Z,7.03
2022-11-29T04:29:25.171Z,9.20
2022-11-29T04:33:27.528Z,8.00
2022-11-29T04:37:09.908Z,11.77
2022-11-29T04:40:46.456Z,14.47
2022-11-29T04:44:35.172Z,15.20
2022-11-29T04:48:00.230Z,8.97
2022-11-29T04:51:22.420Z,8.40
2022-11-29T04:54:40.709Z,6.20
2022-11-29T04:57:56.807Z,5.50
2022-11-29T05:01:20.821Z,7.10
2022-11-29T05:04:42.061Z,6.50
2022-11-29T05:08:05.530Z,6.37
2022-11-29T05:11:27.316Z,6.97
2022-11-29T05:14:56.027Z,5.40
2022-11-29T05:18:19.637Z,5.90
2022-11-29T05:21:48.326Z,5.93
2022-11-29T05:25:22.562Z,8.10
2022-11-29T05:28:41.614Z,5.53
2022-11-29T05:32:11.776Z,6.07
2022-11-29T05:35:51.436Z,5.93
2022-11-29T05:39:30.770Z,5.07
2022-11-29T05:43:06.508Z,6.10
2022-11-29T05:46:23.055Z,5.30
2022-11-29T05:49:43.265Z,6.97
2022-11-29T05:53:03.258Z,7.77
2022-11-29T05:56:24.791Z,6.10
2022-11-29T05:59:38.913Z,5.93
2022-11-29T06:02:59.334Z,7.70
2022-11-29T06:06:18.039Z,7.90
2022-11-29T06:09:36.725Z,6.73
2022-11-29T06:12:57.288Z,6.40
2022-11-29T06:16:50.952Z,6.03
2022-11-29T06:20:20.914Z,6.27
2022-11-29T06:23:53.448Z,7.13
2022-11-29T06:27:30.503Z,7.53
2022-11-29T06:30:56.040Z,8.07
2022-11-29T06:34:17.086Z,7.70
2022-11-29T06:37:32.635Z,7.67
2022-11-29T06:40:41.776Z,10.17
2022-11-29T06:43:53.180Z,8.43
2022-11-29T06:47:09.860Z,8.50
2022-11-29T06:50:35.957Z,7.13
2022-11-29T06:53:59.022Z,7.63
2022-11-29T06:57:22.502Z,7.70
2022-11-29T07:00:44.562Z,8.03
2022-11-29T07:04:16.095Z,17.03
2022-11-29T07:07:28.004Z,8.90
2022-11-29T07:10:41.420Z,7.87
2022-11-29T07:13:50.592Z,8.73
2022-11-29T07:17:22.227Z,7.50
2022-11-29T07:20:41.920Z,7.47
2022-11-29T07:24:06.944Z,9.10
2022-11-29T07:27:22.114Z,7.73
2022-11-29T07:30:42.854Z,7.27
2022-11-29T07:34:05.647Z,8.07
2022-11-29T07:37:29.741Z,6.67
2022-11-29T07:40:52.213Z,8.30
2022-11-29T07:44:14.076Z,8.90
2022-11-29T07:47:22.506Z,7.37
2022-11-29T07:50:32.979Z,11.03
2022-11-29T07:53:45.350Z,11.17
2022-11-29T07:56:53.664Z,12.13
2022-11-29T08:00:01.889Z,9.67
2022-11-29T08:03:19.759Z,9.07
2022-11-29T08:06:29.618Z,5.40
2022-11-29T08:09:37.983Z,6.97
2022-11-29T08:12:50.088Z,6.87
2022-11-29T08:15:58.767Z,6.53
2022-11-29T08:19:07.312Z,6.17
2022-11-29T08:22:16.984Z,5.50
2022-11-29T08:25:28.729Z,6.73
2022-11-29T08:28:36.937Z,5.70
2022-11-29T08:31:45.873Z,5.20
2022-11-29T08:34:54.387Z,5.10
2022-11-29T08:38:05.023Z,4.80
2022-11-29T08:41:16.468Z,6.03
2022-11-29T08:44:24.782Z,4.40
2022-11-29T08:47:38.808Z,4.33
2022-11-29T08:50:47.104Z,4.03
2022-11-29T08:53:55.819Z,3.43
2022-11-29T08:57:38.152Z,4.63
2022-11-29T09:00:33.502Z,3.93
2022-11-29T09:03:59.282Z,6.83
2022-11-29T09:07:07.746Z,13.60
2022-11-29T09:10:17.421Z,7.97
2022-11-29T09:13:25.925Z,12.20
2022-11-29T09:16:38.150Z,4.17
2022-11-29T09:19:46.432Z,5.57
2022-11-29T09:22:54.763Z,2.70
2022-11-29T09:26:06.472Z,2.30
2022-11-29T09:29:16.383Z,2.20
2022-11-29T09:32:24.709Z,2.90
2022-11-29T09:35:33.640Z,2.50
2022-11-29T09:38:42.395Z,2.73
2022-11-29T09:42:24.661Z,2.67
2022-11-29T09:45:41.137Z,1.90
2022-11-29T09:49:10.868Z,2.17
2022-11-29T09:52:37.658Z,2.50
2022-11-29T09:56:12.303Z,2.87
2022-11-29T09:59:29.100Z,2.50
2022-11-29T10:02:45.501Z,3.63
2022-11-29T10:06:03.491Z,1.70
2022-11-29T10:09:23.629Z,1.60
2022-11-29T10:12:38.889Z,3.23
2022-11-29T10:15:56.420Z,1.77
2022-11-29T10:19:16.689Z,1.50
2022-11-29T10:22:39.574Z,1.80
2022-11-29T10:25:51.320Z,2.23
2022-11-29T10:29:00.997Z,1.90
2022-11-29T10:32:15.472Z,2.07
2022-11-29T10:35:25.024Z,9.33
2022-11-29T10:38:33.275Z,5.93
2022-11-29T10:41:41.696Z,15.70
2022-11-29T10:44:49.999Z,3.73
2022-11-29T10:48:05.041Z,5.17
2022-11-29T10:51:18.612Z,2.57
2022-11-29T10:54:38.072Z,2.90
2022-11-29T10:58:17.319Z,1.60
2022-11-29T11:01:29.229Z,1.23
2022-11-29T11:04:47.566Z,1.27
2022-11-29T11:07:59.756Z,2.87
2022-11-29T11:11:09.820Z,1.40
2022-11-29T11:14:24.293Z,1.13
2022-11-29T11:17:33.848Z,1.00
2022-11-29T11:20:44.330Z,1.13
2022-11-29T11:24:00.169Z,0.90
2022-11-29T11:27:08.963Z,2.20
2022-11-29T11:30:25.001Z,0.80
2022-11-29T11:33:37.920Z,1.10
2022-11-29T11:36:47.677Z,1.20
2022-11-29T11:39:59.319Z,0.50
2022-11-29T11:43:22.079Z,0.77
2022-11-29T11:46:50.548Z,0.83
2022-11-29T11:50:13.516Z,0.73
2022-11-29T11:53:27.990Z,1.40
2022-11-29T11:56:36.965Z,0.63
2022-11-29T11:59:50.224Z,0.70
2022-11-29T12:03:01.010Z,0.60
2022-11-29T12:06:31.163Z,0.47
2022-11-29T12:09:47.432Z,0.40
2022-11-29T12:12:58.643Z,0.60
2022-11-29T12:16:15.867Z,1.13
2022-11-29T12:19:34.872Z,0.70
2022-11-29T12:22:56.955Z,1.20
2022-11-29T12:26:23.730Z,0.70
2022-11-29T12:29:42.222Z,0.60
2022-11-29T12:33:13.625Z,0.73
2022-11-29T12:36:38.925Z,0.60
2022-11-29T12:39:58.668Z,1.33
2022-11-29T12:43:23.038Z,1.50
2022-11-29T12:46:32.363Z,0.40
2022-11-29T12:49:56.843Z,0.63
2022-11-29T12:53:31.073Z,1.63
2022-11-29T12:56:49.476Z,1.33
2022-11-29T13:00:14.159Z,1.80
2022-11-29T13:03:35.075Z,0.50
2022-11-29T13:06:56.637Z,1.10
2022-11-29T13:10:53.632Z,0.50
2022-11-29T13:14:41.481Z,0.53
2022-11-29T13:17:54.760Z,0.63
2022-11-29T13:21:14.222Z,0.77
2022-11-29T13:24:36.047Z,0.30
2022-11-29T13:27:58.468Z,0.87
2022-11-29T13:31:10.919Z,0.80
2022-11-29T13:34:29.820Z,0.47
2022-11-29T13:37:53.520Z,1.03
2022-11-29T13:41:17.520Z,0.80
2022-11-29T13:44:38.163Z,1.17
2022-11-29T13:47:50.990Z,0.93
2022-11-29T13:51:30.481Z,0.60
2022-11-29T13:54:38.793Z,1.30
2022-11-29T14:01:22.540Z,1.43
2022-11-29T14:04:36.679Z,1.00
2022-11-29T14:08:26.492Z,2.20
2022-11-29T14:11:46.546Z,2.37
2022-11-29T14:15:01.467Z,3.00
2022-11-29T14:19:04.510Z,2.60
2022-11-29T14:22:31.679Z,3.10
2022-11-29T14:25:51.684Z,4.67
2022-11-29T14:29:01.639Z,3.03
2022-11-29T14:32:24.617Z,3.20
2022-11-29T14:35:45.348Z,3.67
2022-11-29T14:39:09.127Z,3.93
2022-11-29T14:42:21.566Z,3.80
2022-11-29T14:45:34.128Z,3.63
2022-11-29T14:48:47.967Z,3.60
2022-11-29T14:52:28.577Z,3.67
2022-11-29T14:55:39.838Z,3.60
2022-11-29T14:58:48.540Z,4.47
2022-11-29T15:01:58.007Z,4.90
2022-11-29T15:05:18.616Z,6.30
2022-11-29T15:08:36.487Z,5.10
2022-11-29T15:11:58.450Z,5.90
2022-11-29T15:15:31.313Z,5.33
2022-11-29T15:19:28.795Z,7.20
2022-11-29T15:22:52.475Z,8.53
2022-11-29T15:26:02.918Z,8.37
2022-11-29T15:29:15.834Z,7.60
2022-11-29T15:32:29.561Z,8.17
2022-11-29T15:35:39.135Z,7.93
2022-11-29T15:38:49.069Z,10.07
2022-11-29T15:42:05.433Z,9.07
2022-11-29T15:45:33.779Z,9.63
2022-11-29T15:48:42.079Z,8.43
2022-11-29T15:51:57.768Z,8.83
2022-11-29T15:55:14.931Z,8.00
2022-11-29T15:58:28.678Z,11.07
2022-11-29T16:01:39.316Z,8.80
2022-11-29T16:04:51.698Z,10.50
2022-11-29T16:08:05.244Z,8.60
2022-11-29T16:11:21.060Z,11.20
2022-11-29T16:14:30.959Z,9.60
2022-11-29T16:17:39.616Z,11.27
2022-11-29T16:21:00.300Z,11.23
2022-11-29T16:24:21.983Z,10.70
2022-11-29T16:27:34.092Z,12.10
2022-11-29T16:30:51.456Z,11.50
2022-11-29T16:34:11.066Z,9.53
2022-11-29T16:37:37.053Z,12.80
2022-11-29T16:41:21.341Z,11.70
2022-11-29T16:45:06.967Z,13.80
2022-11-29T16:48:40.972Z,12.00
2022-11-29T16:51:50.305Z,12.40
2022-11-29T16:55:00.881Z,13.17
2022-11-29T16:58:13.677Z,13.40
2022-11-29T17:01:27.256Z,17.33
2022-11-29T17:04:37.723Z,16.07
2022-11-29T17:07:47.373Z,15.30
2022-11-29T17:10:56.266Z,14.47
2022-11-29T17:14:04.579Z,13.57
2022-11-29T17:17:19.163Z,14.23
2022-11-29T17:20:28.892Z,16.90
2022-11-29T17:23:37.270Z,19.53
2022-11-29T17:26:46.940Z,21.10
2022-11-29T17:29:55.483Z,22.90
2022-11-29T17:33:03.801Z,21.13
2022-11-29T17:36:19.439Z,27.80
2022-11-29T17:39:28.909Z,35.23
2022-11-29T17:42:54.415Z,31.17
2022-11-29T17:46:09.369Z,30.67
2022-11-29T17:49:19.910Z,32.63
2022-11-29T17:52:29.762Z,32.20
2022-11-29T17:55:38.938Z,34.30
2022-11-29T17:58:47.993Z,32.73
2022-11-29T18:01:56.568Z,30.80
2022-11-29T18:05:05.261Z,31.87
2022-11-29T18:08:14.851Z,32.80
2022-11-29T18:11:28.347Z,34.30
2022-11-29T18:14:38.954Z,32.63
2022-11-29T18:17:47.340Z,35.03
2022-11-29T18:21:00.235Z,31.50
2022-11-29T18:24:10.703Z,32.27
2022-11-29T18:27:19.321Z,32.00
2022-11-29T18:30:27.534Z,31.40
2022-11-29T18:33:35.899Z,34.50
2022-11-29T18:36:46.598Z,33.60
2022-11-29T18:39:57.309Z,33.67
2022-11-29T18:43:05.591Z,35.63
2022-11-29T18:46:16.401Z,35.23
2022-11-29T18:49:24.754Z,32.80
2022-11-29T18:52:37.858Z,33.33
2022-11-29T18:56:01.015Z,35.30
2022-11-29T18:59:11.630Z,32.93
2022-11-29T19:02:20.447Z,33.23
2022-11-29T19:05:29.222Z,32.33
2022-11-29T19:08:38.609Z,31.43
2022-11-29T19:11:49.870Z,27.83
2022-11-29T19:14:58.181Z,30.60
2022-11-29T19:18:10.738Z,26.57
2022-11-29T19:21:21.100Z,27.83
2022-11-29T19:24:29.339Z,28.30
2022-11-29T19:27:40.153Z,28.97
2022-11-29T19:30:55.243Z,28.13
2022-11-29T19:34:03.521Z,27.73
2022-11-29T19:37:11.934Z,28.10
2022-11-29T19:40:20.245Z,24.27
2022-11-29T19:43:33.204Z,27.53
2022-11-29T19:46:45.672Z,24.83
2022-11-29T19:49:57.822Z,29.53
2022-11-29T19:53:10.369Z,30.37
2022-11-29T19:56:20.379Z,30.87
2022-11-29T19:59:31.358Z,31.33
2022-11-29T20:02:39.777Z,27.60
2022-11-29T20:05:55.867Z,27.93
2022-11-29T20:09:06.421Z,31.40
2022-11-29T20:12:14.602Z,29.83
2022-11-29T20:15:24.211Z,31.10
2022-11-29T20:18:34.129Z,27.47
2022-11-29T20:21:45.108Z,33.37
2022-11-29T20:24:54.704Z,29.70
2022-11-29T20:28:04.142Z,29.93
2022-11-29T20:31:18.196Z,27.53
2022-11-29T20:34:27.436Z,25.43
2022-11-29T20:38:04.597Z,33.20
2022-11-29T20:41:21.209Z,28.00
2022-11-29T20:44:39.220Z,30.33
2022-11-29T20:47:54.890Z,29.53
2022-11-29T20:51:04.519Z,30.40
2022-11-29T20:54:13.800Z,29.13
2022-11-29T20:57:22.619Z,25.40
2022-11-29T21:00:31.006Z,26.23
2022-11-29T21:03:40.665Z,26.00
2022-11-29T21:06:48.867Z,22.97
2022-11-29T21:10:01.133Z,25.50
2022-11-29T21:13:13.627Z,26.53
2022-11-29T21:16:28.996Z,26.53
2022-11-29T21:19:40.019Z,25.20
2022-11-29T21:23:00.274Z,27.87
2022-11-29T21:26:18.430Z,32.20
2022-11-29T21:29:30.316Z,29.47
2022-11-29T21:32:39.566Z,29.40
2022-11-29T21:35:55.651Z,27.27
2022-11-29T21:39:05.501Z,26.73
2022-11-29T21:42:16.885Z,31.87
2022-11-29T21:45:28.356Z,29.47
2022-11-29T21:48:37.740Z,30.97
2022-11-29T21:51:47.560Z,28.77
2022-11-29T21:54:56.629Z,33.83
2022-11-29T21:58:06.577Z,29.47
2022-11-29T22:01:18.094Z,26.33
2022-11-29T22:04:27.075Z,29.80
2022-11-29T22:07:36.693Z,36.73
2022-11-29T22:10:45.008Z,36.13
2022-11-29T22:14:12.332Z,31.33
2022-11-29T22:17:20.570Z,30.37
2022-11-29T22:20:28.796Z,31.87
2022-11-29T22:23:38.344Z,29.57
2022-11-29T22:26:47.223Z,29.37
2022-11-29T22:29:55.460Z,28.63
2022-11-29T22:33:04.967Z,30.60
2022-11-29T22:36:16.160Z,30.17
2022-11-29T22:39:26.220Z,28.03
2022-11-29T22:42:34.637Z,22.47
2022-11-29T22:45:42.886Z,30.33
2022-11-29T22:48:55.469Z,33.17
2022-11-29T22:52:03.743Z,45.83
2022-11-29T22:55:13.525Z,27.03
2022-11-29T22:58:21.727Z,30.33
2022-11-29T23:01:32.206Z,34.30
2022-11-29T23:04:40.458Z,33.10
2022-11-29T23:07:48.699Z,29.93
2022-11-29T23:11:00.175Z,31.73
2022-11-29T23:14:08.402Z,30.20
2022-11-29T23:17:16.619Z,30.97
2022-11-29T23:20:24.817Z,30.17
2022-11-29T23:23:33.105Z,27.47
2022-11-29T23:26:46.300Z,30.97
2022-11-29T23:29:54.524Z,32.73
2022-11-29T23:33:02.816Z,27.30
2022-11-29T23:36:12.658Z,29.33
2022-11-29T23:39:21.103Z,27.63
2022-11-29T23:42:30.898Z,25.10
2022-11-29T23:45:41.525Z,26.43
2022-11-29T23:48:50.713Z,23.20
2022-11-29T23:51:59.196Z,28.30
2022-11-29T23:55:08.648Z,25.10
2022-11-29T23:58:19.050Z,28.20
